sensor_id;sensor_type;location;lat;lon;timestamp;pressure;altitude;pressure_sealevel;temperature;humidity
57904;BME280;43720;47.462;19.030;2023-03-29T04:08:30;101193.34;;;-0.30;65.63
57904;BME280;43720;47.462;19.030;2023-03-29T04:11:36;101201.25;;;-0.15;63.66
57904;BME280;43720;47.462;19.030;2023-03-29T04:14:45;101193.06;;;-0.10;63.71
57904;BME280;43720;47.462;19.030;2023-03-29T04:17:48;101191.81;;;-0.03;62.71
57904;BME280;43720;47.462;19.030;2023-03-29T04:20:51;101188.91;;;0.04;61.41
57904;BME280;43720;47.462;19.030;2023-03-29T04:23:55;101187.84;;;0.14;61.23
57904;BME280;43720;47.462;19.030;2023-03-29T04:26:57;101191.41;;;0.16;63.23
57904;BME280;43720;47.462;19.030;2023-03-29T04:30:00;101181.38;;;0.32;62.04
57904;BME280;43720;47.462;19.030;2023-03-29T04:33:04;101186.09;;;0.26;60.46
57904;BME280;43720;47.462;19.030;2023-03-29T04:36:07;101182.19;;;0.31;60.68
57904;BME280;43720;47.462;19.030;2023-03-29T04:39:10;101189.19;;;0.34;60.64
57904;BME280;43720;47.462;19.030;2023-03-29T04:42:12;101189.09;;;0.32;61.40
57904;BME280;43720;47.462;19.030;2023-03-29T04:45:15;101192.00;;;0.12;62.19
57904;BME280;43720;47.462;19.030;2023-03-29T04:48:20;101196.69;;;0.06;63.11
57904;BME280;43720;47.462;19.030;2023-03-29T04:51:23;101204.50;;;0.07;63.82
57904;BME280;43720;47.462;19.030;2023-03-29T04:54:25;101194.34;;;0.09;63.28
57904;BME280;43720;47.462;19.030;2023-03-29T04:57:28;101199.59;;;0.10;62.84
57904;BME280;43720;47.462;19.030;2023-03-29T05:00:32;101205.03;;;0.15;63.25
57904;BME280;43720;47.462;19.030;2023-03-29T05:03:35;101212.87;;;0.16;64.09
57904;BME280;43720;47.462;19.030;2023-03-29T05:06:39;101217.69;;;0.37;63.37
57904;BME280;43720;47.462;19.030;2023-03-29T05:09:42;101209.69;;;0.32;62.72
57904;BME280;43720;47.462;19.030;2023-03-29T05:12:45;101214.47;;;0.39;62.72
57904;BME280;43720;47.462;19.030;2023-03-29T05:15:48;101210.28;;;0.66;60.58
57904;BME280;43720;47.462;19.030;2023-03-29T05:18:50;101212.87;;;0.66;60.36
57904;BME280;43720;47.462;19.030;2023-03-29T05:21:53;101213.75;;;0.67;59.92
57904;BME280;43720;47.462;19.030;2023-03-29T05:24:55;101215.03;;;0.73;59.77
57904;BME280;43720;47.462;19.030;2023-03-29T05:27:58;101216.34;;;0.80;59.85
57904;BME280;43720;47.462;19.030;2023-03-29T05:31:02;101218.25;;;0.83;59.29
57904;BME280;43720;47.462;19.030;2023-03-29T05:34:06;101211.34;;;1.08;59.47
57904;BME280;43720;47.462;19.030;2023-03-29T05:37:09;101205.12;;;1.18;57.76
57904;BME280;43720;47.462;19.030;2023-03-29T05:40:12;101205.12;;;1.18;58.05
57904;BME280;43720;47.462;19.030;2023-03-29T05:43:15;101211.25;;;1.20;58.03
57904;BME280;43720;47.462;19.030;2023-03-29T05:46:18;101213.84;;;1.33;59.52
57904;BME280;43720;47.462;19.030;2023-03-29T05:49:21;101215.81;;;1.51;56.72
57904;BME280;43720;47.462;19.030;2023-03-29T05:52:24;101212.06;;;1.59;56.67
57904;BME280;43720;47.462;19.030;2023-03-29T05:55:27;101205.69;;;1.67;55.94
57904;BME280;43720;47.462;19.030;2023-03-29T05:58:29;101214.81;;;1.75;56.55
57904;BME280;43720;47.462;19.030;2023-03-29T06:01:32;101211.81;;;1.82;55.38
57904;BME280;43720;47.462;19.030;2023-03-29T06:04:35;101209.84;;;1.78;54.99
57904;BME280;43720;47.462;19.030;2023-03-29T06:07:40;101210.78;;;1.93;54.09
57904;BME280;43720;47.462;19.030;2023-03-29T06:10:45;101215.53;;;2.01;55.45
57904;BME280;43720;47.462;19.030;2023-03-29T06:13:48;101217.59;;;2.06;53.47
57904;BME280;43720;47.462;19.030;2023-03-29T06:16:51;101222.09;;;1.95;54.18
57904;BME280;43720;47.462;19.030;2023-03-29T06:19:54;101216.00;;;2.08;54.82
57904;BME280;43720;47.462;19.030;2023-03-29T06:22:57;101216.87;;;2.09;54.07
57904;BME280;43720;47.462;19.030;2023-03-29T06:26:00;101218.56;;;2.22;54.17
57904;BME280;43720;47.462;19.030;2023-03-29T06:29:03;101221.88;;;2.34;52.86
57904;BME280;43720;47.462;19.030;2023-03-29T06:32:05;101224.66;;;2.37;53.30
57904;BME280;43720;47.462;19.030;2023-03-29T06:35:09;101223.22;;;2.42;52.72
57904;BME280;43720;47.462;19.030;2023-03-29T06:38:12;101231.44;;;2.50;52.49
57904;BME280;43720;47.462;19.030;2023-03-29T06:41:17;101219.50;;;2.52;52.43
57904;BME280;43720;47.462;19.030;2023-03-29T06:44:21;101225.22;;;2.61;52.33
57904;BME280;43720;47.462;19.030;2023-03-29T06:47:24;101226.31;;;2.64;52.21
57904;BME280;43720;47.462;19.030;2023-03-29T06:50:32;101224.91;;;2.84;52.24
57904;BME280;43720;47.462;19.030;2023-03-29T06:53:36;101230.16;;;3.01;52.48
57904;BME280;43720;47.462;19.030;2023-03-29T06:56:38;101226.87;;;3.18;51.72
57904;BME280;43720;47.462;19.030;2023-03-29T06:59:41;101220.09;;;3.35;50.61
57904;BME280;43720;47.462;19.030;2023-03-29T07:02:45;101227.72;;;3.48;50.65
57904;BME280;43720;47.462;19.030;2023-03-29T07:05:48;101228.97;;;3.55;49.83
57904;BME280;43720;47.462;19.030;2023-03-29T07:08:54;101230.72;;;3.56;49.62
57904;BME280;43720;47.462;19.030;2023-03-29T07:12:01;101235.62;;;3.66;49.02
57904;BME280;43720;47.462;19.030;2023-03-29T07:15:04;101241.41;;;3.77;51.02
57904;BME280;43720;47.462;19.030;2023-03-29T07:18:11;101248.13;;;3.89;49.83
57904;BME280;43720;47.462;19.030;2023-03-29T07:21:16;101252.66;;;3.93;48.93
57904;BME280;43720;47.462;19.030;2023-03-29T07:24:19;101245.12;;;3.82;48.70
57904;BME280;43720;47.462;19.030;2023-03-29T07:27:22;101251.84;;;3.95;50.37
57904;BME280;43720;47.462;19.030;2023-03-29T07:30:27;101248.81;;;4.18;48.44
57904;BME280;43720;47.462;19.030;2023-03-29T07:33:37;101254.16;;;4.21;48.66
57904;BME280;43720;47.462;19.030;2023-03-29T07:36:40;101262.59;;;4.33;48.73
57904;BME280;43720;47.462;19.030;2023-03-29T07:39:44;101264.88;;;4.44;49.00
57904;BME280;43720;47.462;19.030;2023-03-29T07:42:54;101256.94;;;4.57;47.13
57904;BME280;43720;47.462;19.030;2023-03-29T07:46:02;101257.09;;;4.60;49.21
57904;BME280;43720;47.462;19.030;2023-03-29T07:49:06;101261.47;;;4.77;47.74
57904;BME280;43720;47.462;19.030;2023-03-29T07:52:09;101258.22;;;4.81;45.53
57904;BME280;43720;47.462;19.030;2023-03-29T07:55:13;101260.81;;;4.81;45.85
57904;BME280;43720;47.462;19.030;2023-03-29T07:58:17;101261.50;;;4.95;46.85
57904;BME280;43720;47.462;19.030;2023-03-29T08:01:23;101263.69;;;5.04;45.65
57904;BME280;43720;47.462;19.030;2023-03-29T08:04:29;101260.97;;;5.19;46.13
57904;BME280;43720;47.462;19.030;2023-03-29T08:07:42;101260.06;;;5.34;44.22
57904;BME280;43720;47.462;19.030;2023-03-29T08:10:46;101264.25;;;5.32;46.11
57904;BME280;43720;47.462;19.030;2023-03-29T08:13:48;101255.28;;;5.26;45.83
57904;BME280;43720;47.462;19.030;2023-03-29T08:16:53;101257.75;;;5.40;44.91
57904;BME280;43720;47.462;19.030;2023-03-29T08:19:55;101250.06;;;5.60;43.71
57904;BME280;43720;47.462;19.030;2023-03-29T08:22:57;101256.19;;;5.80;44.17
57904;BME280;43720;47.462;19.030;2023-03-29T08:26:01;101251.31;;;5.86;44.81
57904;BME280;43720;47.462;19.030;2023-03-29T08:29:03;101253.28;;;5.92;44.56
57904;BME280;43720;47.462;19.030;2023-03-29T08:32:05;101250.31;;;6.00;42.31
57904;BME280;43720;47.462;19.030;2023-03-29T08:35:08;101246.94;;;6.03;41.52
57904;BME280;43720;47.462;19.030;2023-03-29T08:38:11;101250.78;;;6.30;42.89
57904;BME280;43720;47.462;19.030;2023-03-29T08:51:29;101237.41;;;6.21;38.65
57904;BME280;43720;47.462;19.030;2023-03-29T08:54:38;101247.78;;;6.21;40.09
57904;BME280;43720;47.462;19.030;2023-03-29T08:57:47;101237.97;;;6.33;39.67
57904;BME280;43720;47.462;19.030;2023-03-29T09:00:55;101228.19;;;6.28;38.32
57904;BME280;43720;47.462;19.030;2023-03-29T09:04:05;101221.34;;;6.30;38.40
57904;BME280;43720;47.462;19.030;2023-03-29T09:07:12;101223.00;;;6.08;37.63
57904;BME280;43720;47.462;19.030;2023-03-29T09:10:17;101215.06;;;6.05;39.16
57904;BME280;43720;47.462;19.030;2023-03-29T09:26:55;101193.69;;;6.90;38.98
57904;BME280;43720;47.462;19.030;2023-03-29T09:30:28;101187.09;;;6.98;37.65
57904;BME280;43720;47.462;19.030;2023-03-29T09:33:40;101184.75;;;7.04;36.41
57904;BME280;43720;47.462;19.030;2023-03-29T09:36:52;101187.34;;;7.25;38.23
57904;BME280;43720;47.462;19.030;2023-03-29T09:39:56;101189.03;;;7.46;37.77
57904;BME280;43720;47.462;19.030;2023-03-29T09:43:01;101181.25;;;7.68;37.70
57904;BME280;43720;47.462;19.030;2023-03-29T09:46:13;101175.38;;;7.74;37.07
57904;BME280;43720;47.462;19.030;2023-03-29T09:49:48;101176.59;;;7.59;37.00
57904;BME280;43720;47.462;19.030;2023-03-29T09:53:06;101171.47;;;7.63;38.46
57904;BME280;43720;47.462;19.030;2023-03-29T09:56:09;101169.41;;;7.76;38.63
57904;BME280;43720;47.462;19.030;2023-03-29T09:59:12;101163.63;;;7.83;36.24
57904;BME280;43720;47.462;19.030;2023-03-29T10:02:18;101158.53;;;7.87;36.01
57904;BME280;43720;47.462;19.030;2023-03-29T10:05:23;101154.69;;;7.99;37.05
57904;BME280;43720;47.462;19.030;2023-03-29T10:08:38;101158.84;;;8.18;38.34
57904;BME280;43720;47.462;19.030;2023-03-29T10:11:45;101147.25;;;8.34;37.25
57904;BME280;43720;47.462;19.030;2023-03-29T10:14:48;101142.06;;;8.34;37.00
57904;BME280;43720;47.462;19.030;2023-03-29T10:18:00;101153.53;;;8.15;37.07
57904;BME280;43720;47.462;19.030;2023-03-29T10:21:04;101142.66;;;8.03;37.83
57904;BME280;43720;47.462;19.030;2023-03-29T10:24:08;101138.56;;;8.09;36.75
57904;BME280;43720;47.462;19.030;2023-03-29T10:27:10;101140.78;;;8.23;36.18
57904;BME280;43720;47.462;19.030;2023-03-29T10:30:21;101132.19;;;8.25;36.26
57904;BME280;43720;47.462;19.030;2023-03-29T10:33:29;101131.91;;;8.40;36.69
57904;BME280;43720;47.462;19.030;2023-03-29T10:36:32;101139.59;;;8.37;36.99
57904;BME280;43720;47.462;19.030;2023-03-29T10:39:35;101128.56;;;8.44;36.08
57904;BME280;43720;47.462;19.030;2023-03-29T10:42:46;101121.63;;;8.45;35.91
57904;BME280;43720;47.462;19.030;2023-03-29T10:45:53;101124.06;;;8.66;37.63
57904;BME280;43720;47.462;19.030;2023-03-29T10:48:58;101116.47;;;8.72;36.83
57904;BME280;43720;47.462;19.030;2023-03-29T10:52:00;101115.88;;;8.80;36.68
57904;BME280;43720;47.462;19.030;2023-03-29T10:55:03;101116.47;;;8.72;37.92
57904;BME280;43720;47.462;19.030;2023-03-29T11:04:45;101112.84;;;8.43;37.76
57904;BME280;43720;47.462;19.030;2023-03-29T11:15:02;101102.97;;;8.58;37.03
57904;BME280;43720;47.462;19.030;2023-03-29T11:27:51;101099.56;;;8.86;38.09
57904;BME280;43720;47.462;19.030;2023-03-29T11:34:59;101091.53;;;9.34;37.85
57904;BME280;43720;47.462;19.030;2023-03-29T11:38:15;101084.75;;;9.69;36.37
57904;BME280;43720;47.462;19.030;2023-03-29T11:41:30;101071.47;;;9.62;35.52
57904;BME280;43720;47.462;19.030;2023-03-29T11:44:34;101070.50;;;9.58;34.98
57904;BME280;43720;47.462;19.030;2023-03-29T11:47:38;101061.38;;;9.72;35.11
57904;BME280;43720;47.462;19.030;2023-03-29T11:50:48;101066.41;;;9.98;36.96
57904;BME280;43720;47.462;19.030;2023-03-29T11:53:54;101061.78;;;10.19;36.65
57904;BME280;43720;47.462;19.030;2023-03-29T11:57:04;101060.41;;;10.32;35.61
57904;BME280;43720;47.462;19.030;2023-03-29T12:03:46;101063.59;;;10.22;37.55
57904;BME280;43720;47.462;19.030;2023-03-29T12:07:06;101050.41;;;10.17;35.63
57904;BME280;43720;47.462;19.030;2023-03-29T12:10:18;101040.00;;;10.50;35.98
57904;BME280;43720;47.462;19.030;2023-03-29T12:13:31;101038.09;;;10.45;35.92
57904;BME280;43720;47.462;19.030;2023-03-29T12:16:48;101038.53;;;10.62;36.96
57904;BME280;43720;47.462;19.030;2023-03-29T12:20:17;101030.94;;;10.72;35.47
57904;BME280;43720;47.462;19.030;2023-03-29T12:23:20;101022.94;;;10.65;34.07
57904;BME280;43720;47.462;19.030;2023-03-29T12:26:35;101014.31;;;10.69;33.59
57904;BME280;43720;47.462;19.030;2023-03-29T12:37:23;101011.22;;;10.87;35.45
57904;BME280;43720;47.462;19.030;2023-03-29T12:40:54;101005.12;;;10.88;36.73
57904;BME280;43720;47.462;19.030;2023-03-29T12:44:00;101007.97;;;10.97;37.04
57904;BME280;43720;47.462;19.030;2023-03-29T12:47:05;100998.50;;;11.02;37.40
57904;BME280;43720;47.462;19.030;2023-03-29T12:50:34;100999.94;;;11.27;36.34
57904;BME280;43720;47.462;19.030;2023-03-29T12:53:39;101003.59;;;11.35;35.78
57904;BME280;43720;47.462;19.030;2023-03-29T13:00:24;101002.38;;;11.19;35.21
57904;BME280;43720;47.462;19.030;2023-03-29T13:10:09;100995.69;;;10.93;36.10
57904;BME280;43720;47.462;19.030;2023-03-29T13:13:34;100981.91;;;11.01;36.84
57904;BME280;43720;47.462;19.030;2023-03-29T13:16:39;100985.03;;;11.24;37.68
57904;BME280;43720;47.462;19.030;2023-03-29T13:33:19;100969.69;;;11.41;35.87
57904;BME280;43720;47.462;19.030;2023-03-29T13:39:53;100963.91;;;11.15;36.81
57904;BME280;43720;47.462;19.030;2023-03-29T13:43:09;100963.00;;;11.13;35.71
57904;BME280;43720;47.462;19.030;2023-03-29T13:46:21;100956.88;;;11.13;36.62
57904;BME280;43720;47.462;19.030;2023-03-29T13:49:27;100957.41;;;10.98;35.22
57904;BME280;43720;47.462;19.030;2023-03-29T13:52:35;100946.81;;;10.92;35.30
57904;BME280;43720;47.462;19.030;2023-03-29T13:55:49;100948.06;;;11.08;38.35
57904;BME280;43720;47.462;19.030;2023-03-29T13:58:56;100943.16;;;11.24;36.56
57904;BME280;43720;47.462;19.030;2023-03-29T14:02:04;100947.84;;;11.39;36.76
57904;BME280;43720;47.462;19.030;2023-03-29T14:05:11;100940.38;;;11.15;36.06
57904;BME280;43720;47.462;19.030;2023-03-29T14:08:25;100944.81;;;11.19;36.94
57904;BME280;43720;47.462;19.030;2023-03-29T14:11:29;100940.16;;;11.06;36.87
57904;BME280;43720;47.462;19.030;2023-03-29T14:14:32;100939.59;;;11.19;37.12
57904;BME280;43720;47.462;19.030;2023-03-29T14:17:35;100939.97;;;10.97;37.01
57904;BME280;43720;47.462;19.030;2023-03-29T14:20:42;100931.28;;;10.99;37.61
57904;BME280;43720;47.462;19.030;2023-03-29T14:23:52;100935.50;;;11.34;39.19
57904;BME280;43720;47.462;19.030;2023-03-29T14:26:54;100931.25;;;11.39;40.23
57904;BME280;43720;47.462;19.030;2023-03-29T14:29:57;100938.31;;;11.44;39.82
57904;BME280;43720;47.462;19.030;2023-03-29T14:32:59;100932.19;;;11.42;40.22
57904;BME280;43720;47.462;19.030;2023-03-29T14:36:11;100926.00;;;11.39;39.47
57904;BME280;43720;47.462;19.030;2023-03-29T14:39:19;100930.25;;;11.32;40.03
57904;BME280;43720;47.462;19.030;2023-03-29T14:42:24;100931.13;;;11.34;39.24
57904;BME280;43720;47.462;19.030;2023-03-29T14:45:27;100930.97;;;11.26;40.27
57904;BME280;43720;47.462;19.030;2023-03-29T14:48:30;100923.91;;;11.22;38.95
57904;BME280;43720;47.462;19.030;2023-03-29T14:51:34;100918.47;;;11.12;39.60
57904;BME280;43720;47.462;19.030;2023-03-29T14:54:38;100916.75;;;11.14;38.83
57904;BME280;43720;47.462;19.030;2023-03-29T14:57:43;100915.72;;;11.06;39.50
57904;BME280;43720;47.462;19.030;2023-03-29T15:00:48;100920.88;;;11.01;40.23
57904;BME280;43720;47.462;19.030;2023-03-29T15:03:56;100914.69;;;10.97;39.50
57904;BME280;43720;47.462;19.030;2023-03-29T15:07:03;100917.91;;;10.86;38.94
57904;BME280;43720;47.462;19.030;2023-03-29T15:10:06;100907.53;;;10.89;39.22
57904;BME280;43720;47.462;19.030;2023-03-29T15:13:19;100908.56;;;10.97;39.64
57904;BME280;43720;47.462;19.030;2023-03-29T15:16:22;100907.56;;;10.92;39.49
57904;BME280;43720;47.462;19.030;2023-03-29T15:19:25;100894.72;;;11.01;40.24
57904;BME280;43720;47.462;19.030;2023-03-29T15:22:32;100904.56;;;11.14;41.00
57904;BME280;43720;47.462;19.030;2023-03-29T15:25:46;100899.47;;;11.20;41.20
57904;BME280;43720;47.462;19.030;2023-03-29T15:28:51;100899.56;;;11.26;39.97
57904;BME280;43720;47.462;19.030;2023-03-29T15:31:58;100894.87;;;11.10;40.49
57904;BME280;43720;47.462;19.030;2023-03-29T15:35:03;100894.87;;;11.10;40.67
57904;BME280;43720;47.462;19.030;2023-03-29T15:38:10;100889.25;;;10.90;41.93
